createdAt,value
2019-01-31T00:00:49.823Z,16.87
2019-01-31T00:03:48.111Z,15.50
2019-01-31T00:06:44.291Z,16.63
2019-01-31T00:09:42.687Z,16.43
2019-01-31T00:12:35.811Z,15.70
2019-01-31T00:15:27.506Z,16.10
2019-01-31T00:18:29.055Z,16.40
2019-01-31T00:21:08.831Z,16.50
2019-01-31T00:24:00.771Z,16.67
2019-01-31T00:27:07.286Z,17.03
2019-01-31T00:30:45.268Z,16.90
2019-01-31T00:33:57.742Z,17.07
2019-01-31T00:36:53.082Z,17.10
2019-01-31T00:39:51.918Z,18.20
2019-01-31T00:43:05.490Z,16.00
2019-01-31T00:46:15.064Z,17.30
2019-01-31T00:49:13.899Z,17.43
2019-01-31T00:52:23.503Z,16.93
2019-01-31T00:55:27.955Z,17.17
2019-01-31T00:58:41.087Z,18.00
2019-01-31T01:01:27.663Z,17.50
2019-01-31T01:04:25.327Z,18.40
2019-01-31T01:07:36.083Z,16.47
2019-01-31T01:10:28.671Z,17.47
2019-01-31T01:13:42.448Z,17.60
2019-01-31T01:16:21.293Z,18.57
2019-01-31T01:19:46.838Z,19.07
2019-01-31T01:22:42.255Z,17.67
2019-01-31T01:25:49.413Z,17.27
2019-01-31T01:29:06.135Z,18.37
2019-01-31T01:32:19.239Z,17.80
2019-01-31T01:35:41.687Z,17.80
2019-01-31T01:39:18.628Z,18.17
2019-01-31T01:41:59.866Z,16.30
2019-01-31T01:45:01.267Z,18.33
2019-01-31T01:48:30.349Z,19.10
2019-01-31T01:51:49.952Z,17.33
2019-01-31T01:54:48.699Z,17.80
2019-01-31T01:57:45.527Z,17.93
2019-01-31T02:00:52.014Z,17.37
2019-01-31T02:03:48.896Z,18.00
2019-01-31T02:07:05.252Z,18.33
2019-01-31T02:10:20.388Z,17.73
2019-01-31T02:13:42.884Z,17.60
2019-01-31T02:16:59.326Z,17.40
2019-01-31T02:20:13.103Z,17.73
2019-01-31T02:23:18.527Z,18.33
2019-01-31T02:26:12.011Z,17.57
2019-01-31T02:29:37.727Z,17.57
2019-01-31T02:32:59.195Z,17.97
2019-01-31T02:36:06.918Z,17.73
2019-01-31T02:39:01.397Z,17.47
2019-01-31T02:41:43.679Z,17.63
2019-01-31T02:45:12.572Z,17.03
2019-01-31T02:47:58.367Z,17.60
2019-01-31T02:50:54.103Z,18.53
2019-01-31T02:53:48.671Z,17.80
2019-01-31T02:56:48.306Z,17.57
2019-01-31T02:59:59.042Z,19.27
2019-01-31T03:02:36.760Z,18.20
2019-01-31T03:05:48.917Z,18.77
2019-01-31T03:08:56.075Z,18.33
2019-01-31T03:11:43.731Z,18.43
2019-01-31T03:14:44.269Z,17.83
2019-01-31T03:17:53.627Z,17.73
2019-01-31T03:20:52.576Z,19.13
2019-01-31T03:24:00.824Z,17.53
2019-01-31T03:27:26.895Z,17.87
2019-01-31T03:31:05.181Z,19.37
2019-01-31T03:33:51.907Z,17.53
2019-01-31T03:37:07.436Z,19.27
2019-01-31T03:40:30.324Z,18.50
2019-01-31T03:43:44.031Z,18.33
2019-01-31T03:46:53.763Z,18.67
2019-01-31T03:49:41.815Z,19.00
2019-01-31T03:52:44.151Z,18.67
2019-01-31T03:55:22.802Z,19.07
2019-01-31T03:58:31.114Z,18.80
2019-01-31T04:01:56.478Z,19.97
2019-01-31T04:04:33.211Z,20.23
2019-01-31T04:07:02.787Z,20.93
2019-01-31T04:09:32.512Z,20.20
2019-01-31T04:12:02.169Z,19.07
2019-01-31T04:14:31.883Z,19.10
2019-01-31T04:17:01.631Z,20.93
2019-01-31T04:19:31.298Z,20.30
2019-01-31T04:22:02.963Z,20.80
2019-01-31T04:24:32.615Z,19.23
2019-01-31T04:27:02.311Z,20.43
2019-01-31T04:29:31.975Z,20.27
2019-01-31T04:32:01.721Z,20.50
2019-01-31T04:34:32.407Z,20.33
2019-01-31T04:37:02.139Z,20.20
2019-01-31T04:39:31.883Z,20.57
2019-01-31T04:42:01.563Z,20.63
2019-01-31T04:44:31.263Z,20.57
2019-01-31T04:47:01.003Z,19.90
2019-01-31T04:49:31.899Z,19.00
2019-01-31T04:52:01.635Z,20.93
2019-01-31T04:54:31.437Z,20.23
2019-01-31T04:57:02.971Z,20.37
2019-01-31T04:59:32.671Z,19.40
2019-01-31T05:02:02.310Z,19.57
2019-01-31T05:04:32.006Z,18.50
2019-01-31T05:07:01.738Z,18.70
2019-01-31T05:09:33.279Z,18.63
2019-01-31T05:12:02.991Z,18.30
2019-01-31T05:14:32.714Z,18.93
2019-01-31T05:17:02.453Z,18.33
2019-01-31T05:19:32.141Z,17.60
2019-01-31T05:22:01.851Z,17.17
2019-01-31T05:24:31.559Z,17.83
2019-01-31T05:27:04.389Z,17.37
2019-01-31T05:29:32.624Z,17.63
2019-01-31T05:32:03.518Z,17.13
2019-01-31T05:34:33.270Z,17.47
2019-01-31T05:37:02.951Z,17.23
2019-01-31T05:39:32.658Z,16.80
2019-01-31T05:42:02.395Z,16.47
2019-01-31T05:44:33.286Z,17.93
2019-01-31T05:47:02.840Z,17.67
2019-01-31T05:49:32.527Z,17.13
2019-01-31T05:52:03.935Z,15.70
2019-01-31T05:54:34.819Z,16.90
2019-01-31T05:57:04.423Z,16.37
2019-01-31T05:59:35.236Z,16.70
2019-01-31T06:02:04.935Z,16.43
2019-01-31T06:04:34.603Z,16.57
2019-01-31T06:07:11.134Z,16.67
2019-01-31T06:09:35.879Z,15.57
2019-01-31T06:12:07.683Z,14.10
2019-01-31T06:14:37.448Z,14.00
2019-01-31T06:17:07.111Z,13.40
2019-01-31T06:19:36.823Z,13.27
2019-01-31T06:22:06.576Z,12.27
2019-01-31T06:24:37.360Z,12.17
2019-01-31T06:27:06.987Z,11.40
2019-01-31T06:33:04.895Z,10.70
2019-01-31T06:35:34.419Z,12.40
2019-01-31T06:38:03.974Z,12.10
2019-01-31T06:40:33.510Z,12.77
2019-01-31T06:43:05.699Z,12.67
2019-01-31T06:45:35.270Z,12.70
2019-01-31T06:48:05.319Z,13.90
2019-01-31T06:50:34.981Z,14.13
2019-01-31T06:53:05.871Z,14.17
2019-01-31T06:55:35.743Z,14.57
2019-01-31T06:58:06.909Z,15.23
2019-01-31T07:00:38.586Z,14.13
2019-01-31T07:03:08.251Z,14.90
2019-01-31T07:05:40.305Z,15.23
2019-01-31T07:08:11.529Z,15.37
2019-01-31T07:10:41.122Z,16.37
2019-01-31T07:13:10.771Z,15.90
2019-01-31T07:15:40.546Z,15.90
2019-01-31T07:18:10.206Z,16.43
2019-01-31T07:20:39.904Z,16.20
2019-01-31T07:23:09.633Z,17.60
2019-01-31T07:25:39.336Z,16.63
2019-01-31T07:28:09.051Z,16.43
2019-01-31T07:30:38.762Z,16.80
2019-01-31T07:33:08.455Z,16.30
2019-01-31T07:35:38.218Z,15.40
2019-01-31T07:38:07.882Z,13.37
2019-01-31T07:40:37.590Z,13.67
2019-01-31T07:43:07.370Z,11.67
2019-01-31T07:45:37.179Z,12.50
2019-01-31T07:48:07.015Z,13.90
2019-01-31T07:50:36.878Z,13.07
2019-01-31T07:53:06.551Z,14.17
2019-01-31T07:55:36.261Z,14.73
2019-01-31T07:58:07.712Z,15.33
2019-01-31T08:00:38.331Z,17.00
2019-01-31T08:03:08.089Z,18.27
2019-01-31T08:05:38.871Z,17.53
2019-01-31T08:08:09.517Z,20.57
2019-01-31T08:10:41.162Z,19.97
2019-01-31T08:13:10.845Z,18.33
2019-01-31T08:15:40.494Z,19.13
2019-01-31T08:18:11.123Z,18.10
2019-01-31T08:20:40.778Z,18.60
2019-01-31T08:23:10.723Z,17.80
2019-01-31T08:25:40.302Z,18.23
2019-01-31T08:28:10.062Z,16.67
2019-01-31T08:30:41.638Z,16.00
2019-01-31T08:33:11.555Z,16.47
2019-01-31T08:35:44.168Z,17.40
2019-01-31T08:38:13.710Z,16.03
2019-01-31T08:40:43.375Z,15.80
2019-01-31T08:43:13.085Z,16.40
2019-01-31T08:45:42.826Z,16.53
2019-01-31T08:48:12.504Z,17.93
2019-01-31T08:50:42.316Z,17.17
2019-01-31T08:53:11.942Z,17.90
2019-01-31T08:55:41.654Z,16.27
2019-01-31T08:58:11.382Z,17.40
2019-01-31T09:00:40.895Z,16.43
2019-01-31T09:03:10.570Z,17.40
2019-01-31T09:05:40.315Z,15.23
2019-01-31T09:08:09.971Z,15.80
2019-01-31T09:10:40.468Z,16.47
2019-01-31T09:13:11.837Z,14.10
2019-01-31T09:15:41.412Z,15.60
2019-01-31T09:18:11.070Z,15.37
2019-01-31T09:21:01.826Z,15.27
2019-01-31T09:23:51.067Z,13.87
2019-01-31T09:27:12.198Z,15.73
2019-01-31T09:30:09.654Z,13.83
2019-01-31T09:33:07.668Z,15.17
2019-01-31T09:36:20.091Z,15.10
2019-01-31T09:39:23.986Z,14.73
2019-01-31T09:42:06.062Z,13.40
2019-01-31T09:45:12.566Z,15.20
2019-01-31T09:48:11.742Z,13.03
2019-01-31T09:51:22.554Z,13.13
2019-01-31T09:54:11.686Z,13.40
2019-01-31T09:57:10.205Z,12.80
2019-01-31T09:59:45.534Z,12.83
2019-01-31T10:03:05.177Z,12.23
2019-01-31T10:06:10.340Z,12.73
2019-01-31T10:09:06.375Z,12.53
2019-01-31T10:12:18.394Z,11.47
2019-01-31T10:15:23.603Z,11.43
2019-01-31T10:18:34.363Z,10.40
2019-01-31T10:21:38.526Z,10.30
2019-01-31T10:24:45.887Z,9.90
2019-01-31T10:27:54.243Z,10.23
2019-01-31T10:31:00.172Z,10.20
2019-01-31T10:33:53.627Z,8.47
2019-01-31T10:37:06.971Z,9.43
2019-01-31T10:40:04.060Z,8.87
2019-01-31T10:43:01.748Z,9.60
2019-01-31T10:46:12.579Z,8.17
2019-01-31T10:49:29.292Z,7.10
2019-01-31T10:52:51.583Z,7.83
2019-01-31T10:55:59.666Z,6.80
2019-01-31T10:58:56.054Z,6.93
2019-01-31T11:02:04.371Z,7.27
2019-01-31T11:05:20.879Z,6.90
2019-01-31T11:08:28.573Z,7.53
2019-01-31T11:11:37.776Z,8.13
2019-01-31T11:15:02.704Z,7.50
2019-01-31T11:18:28.204Z,7.30
2019-01-31T11:21:37.215Z,7.63
2019-01-31T11:24:31.973Z,7.10
2019-01-31T11:27:48.012Z,6.53
2019-01-31T11:30:33.543Z,6.97
2019-01-31T11:33:45.993Z,6.93
2019-01-31T11:37:23.746Z,5.90
2019-01-31T11:40:42.955Z,4.97
2019-01-31T11:43:54.051Z,4.67
2019-01-31T11:46:48.094Z,5.50
2019-01-31T11:49:37.191Z,7.20
2019-01-31T11:52:52.659Z,6.07
2019-01-31T11:55:58.018Z,5.80
2019-01-31T11:58:53.267Z,5.23
2019-01-31T12:01:23.068Z,5.23
2019-01-31T12:04:01.860Z,5.07
2019-01-31T12:06:31.379Z,5.03
2019-01-31T12:09:00.899Z,5.53
2019-01-31T12:11:30.736Z,8.00
2019-01-31T12:14:00.304Z,6.53
2019-01-31T12:16:30.032Z,6.10
2019-01-31T12:18:59.799Z,5.83
2019-01-31T12:21:29.544Z,4.93
2019-01-31T12:23:59.150Z,5.97
2019-01-31T12:26:28.891Z,6.57
2019-01-31T12:28:58.570Z,7.00
2019-01-31T12:31:28.280Z,6.30
2019-01-31T12:33:58.007Z,6.43
2019-01-31T12:36:27.695Z,6.87
2019-01-31T12:38:57.471Z,6.17
2019-01-31T12:41:31.215Z,7.63
2019-01-31T12:44:00.799Z,6.30
2019-01-31T12:46:32.689Z,7.93
2019-01-31T12:49:01.808Z,7.97
2019-01-31T12:51:31.525Z,7.90
2019-01-31T12:54:01.377Z,7.73
2019-01-31T12:56:31.075Z,7.53
2019-01-31T12:59:00.718Z,6.97
2019-01-31T13:01:30.439Z,9.33
2019-01-31T13:04:00.171Z,8.83
2019-01-31T13:06:29.687Z,8.00
2019-01-31T13:08:59.207Z,8.00
2019-01-31T13:11:28.991Z,8.43
2019-01-31T13:13:58.591Z,7.70
2019-01-31T13:16:28.291Z,8.20
2019-01-31T13:18:58.023Z,7.43
2019-01-31T13:21:27.851Z,8.87
2019-01-31T13:23:57.535Z,7.80
2019-01-31T13:26:27.231Z,10.20
2019-01-31T13:28:56.823Z,8.37
2019-01-31T13:31:26.559Z,7.83
2019-01-31T13:33:56.252Z,8.60
2019-01-31T13:36:25.975Z,8.90
2019-01-31T13:38:56.244Z,9.13
2019-01-31T13:41:25.807Z,11.40
2019-01-31T13:43:57.764Z,9.07
2019-01-31T13:46:26.857Z,8.90
2019-01-31T13:48:56.567Z,8.90
2019-01-31T13:51:26.403Z,9.80
2019-01-31T13:53:56.280Z,10.40
2019-01-31T13:56:25.902Z,10.93
2019-01-31T13:58:55.643Z,9.93
2019-01-31T14:01:25.312Z,10.10
2019-01-31T14:03:55.064Z,10.67
2019-01-31T14:06:26.064Z,10.80
2019-01-31T14:08:55.885Z,11.57
2019-01-31T14:11:27.534Z,11.70
2019-01-31T14:14:08.461Z,12.50
2019-01-31T14:16:28.491Z,12.93
2019-01-31T14:18:58.244Z,15.03
2019-01-31T14:21:27.947Z,14.50
2019-01-31T14:23:57.662Z,15.40
2019-01-31T14:26:27.231Z,15.67
2019-01-31T14:28:56.935Z,15.50
2019-01-31T14:31:26.667Z,18.90
2019-01-31T14:33:56.351Z,15.87
2019-01-31T14:36:26.411Z,16.57
2019-01-31T14:38:56.008Z,16.47
2019-01-31T14:41:25.699Z,16.47
2019-01-31T14:45:36.339Z,17.80
2019-01-31T14:48:06.262Z,17.27
2019-01-31T14:50:36.331Z,16.47
2019-01-31T14:53:06.391Z,17.40
2019-01-31T14:55:35.920Z,18.70
2019-01-31T14:58:08.074Z,17.97
2019-01-31T15:00:37.927Z,17.23
2019-01-31T15:03:07.584Z,13.90
2019-01-31T15:05:37.236Z,14.77
2019-01-31T15:08:07.403Z,13.93
2019-01-31T15:10:37.070Z,13.27
2019-01-31T15:13:07.959Z,12.93
2019-01-31T15:15:37.540Z,13.13
2019-01-31T15:18:08.395Z,12.87
2019-01-31T15:20:40.601Z,13.40
2019-01-31T15:23:10.471Z,13.83
2019-01-31T15:25:40.067Z,14.90
2019-01-31T15:28:09.752Z,14.70
2019-01-31T15:30:39.439Z,15.17
2019-01-31T15:33:11.907Z,17.53
2019-01-31T15:35:42.406Z,17.50
2019-01-31T15:38:12.224Z,17.50
2019-01-31T15:40:45.038Z,18.70
2019-01-31T15:43:14.576Z,18.50
2019-01-31T15:45:44.467Z,18.47
2019-01-31T15:48:15.501Z,19.23
2019-01-31T15:50:48.143Z,19.13
2019-01-31T15:53:17.701Z,17.70
2019-01-31T15:55:47.553Z,17.33
2019-01-31T15:58:17.155Z,18.07
2019-01-31T16:00:49.547Z,19.60
2019-01-31T16:03:20.909Z,17.77
2019-01-31T16:05:50.826Z,19.90
2019-01-31T16:08:20.391Z,20.93
2019-01-31T16:10:50.192Z,22.07
2019-01-31T16:13:19.872Z,24.60
2019-01-31T16:15:49.625Z,25.37
2019-01-31T16:18:19.227Z,28.20
2019-01-31T16:20:48.809Z,28.33
2019-01-31T16:23:18.413Z,26.57
2019-01-31T16:25:48.210Z,25.83
2019-01-31T16:28:17.974Z,25.77
2019-01-31T16:30:47.647Z,25.60
2019-01-31T16:33:17.439Z,26.20
2019-01-31T16:35:48.255Z,27.60
2019-01-31T16:38:17.819Z,25.83
2019-01-31T16:40:47.538Z,27.03
2019-01-31T16:43:17.226Z,23.70
2019-01-31T16:45:46.987Z,26.33
2019-01-31T16:48:16.643Z,23.87
2019-01-31T16:50:46.471Z,26.33
2019-01-31T16:53:16.267Z,29.07
2019-01-31T16:55:45.976Z,27.47
2019-01-31T16:58:17.423Z,28.07
2019-01-31T17:00:47.362Z,27.37
2019-01-31T17:03:16.960Z,26.77
2019-01-31T17:05:46.564Z,26.63
2019-01-31T17:08:16.111Z,27.03
2019-01-31T17:10:45.763Z,30.63
2019-01-31T17:13:16.584Z,29.87
2019-01-31T17:15:46.246Z,27.77
2019-01-31T17:18:15.928Z,29.23
2019-01-31T17:20:47.915Z,30.23
2019-01-31T17:23:18.827Z,30.40
2019-01-31T17:25:48.335Z,29.87
2019-01-31T17:28:20.771Z,33.33
2019-01-31T17:30:51.563Z,45.67
2019-01-31T17:33:22.060Z,39.10
2019-01-31T17:35:52.476Z,33.83
2019-01-31T17:38:22.246Z,37.90
2019-01-31T17:40:51.807Z,34.37
2019-01-31T17:43:23.066Z,34.33
2019-01-31T17:45:52.622Z,34.17
2019-01-31T17:48:22.483Z,33.93
2019-01-31T17:50:52.186Z,35.17
2019-01-31T17:53:25.340Z,37.10
2019-01-31T17:55:55.007Z,36.33
2019-01-31T17:58:24.712Z,35.97
2019-01-31T18:00:58.744Z,34.90
2019-01-31T18:03:28.789Z,36.07
2019-01-31T18:05:58.798Z,36.93
2019-01-31T18:08:28.503Z,38.17
2019-01-31T18:10:58.217Z,39.27
2019-01-31T18:13:27.885Z,37.07
2019-01-31T18:15:57.607Z,38.60
2019-01-31T18:18:27.423Z,36.50
2019-01-31T18:20:57.128Z,34.73
2019-01-31T18:23:26.753Z,34.87
2019-01-31T18:25:56.459Z,34.17
2019-01-31T18:28:26.166Z,34.40
2019-01-31T18:30:55.911Z,32.97
2019-01-31T18:33:27.518Z,33.70
2019-01-31T18:35:56.955Z,34.57
2019-01-31T18:38:26.627Z,30.93
2019-01-31T18:40:56.324Z,27.93
2019-01-31T18:43:26.175Z,29.93
2019-01-31T18:45:55.722Z,28.43
2019-01-31T18:48:25.328Z,26.23
2019-01-31T18:50:55.307Z,25.50
2019-01-31T18:53:24.864Z,27.00
2019-01-31T18:55:54.607Z,24.83
2019-01-31T18:58:24.296Z,25.10
2019-01-31T19:00:58.971Z,27.07
2019-01-31T19:03:28.619Z,25.53
2019-01-31T19:05:58.567Z,25.73
2019-01-31T19:08:28.287Z,25.87
2019-01-31T19:10:57.975Z,26.63
2019-01-31T19:13:27.680Z,27.73
2019-01-31T19:16:04.696Z,27.07
2019-01-31T19:18:28.982Z,25.33
2019-01-31T19:20:58.781Z,26.27
2019-01-31T19:23:28.375Z,25.00
2019-01-31T19:25:58.110Z,23.87
2019-01-31T19:28:27.776Z,25.90
2019-01-31T19:30:57.492Z,24.20
2019-01-31T19:33:27.470Z,25.03
2019-01-31T19:35:57.285Z,24.87
2019-01-31T19:38:26.814Z,26.03
2019-01-31T19:40:56.556Z,24.00
2019-01-31T19:43:26.235Z,23.77
2019-01-31T19:45:56.616Z,25.57
2019-01-31T19:48:27.554Z,26.67
2019-01-31T19:50:57.229Z,26.50
2019-01-31T19:53:26.939Z,25.60
2019-01-31T19:55:56.655Z,26.27
2019-01-31T19:58:26.332Z,31.20
2019-01-31T20:00:56.062Z,31.00
2019-01-31T20:03:25.916Z,31.27
2019-01-31T20:05:55.495Z,32.60
2019-01-31T20:08:25.055Z,35.23
2019-01-31T20:10:54.727Z,31.00
2019-01-31T20:13:24.506Z,31.77
2019-01-31T20:15:54.586Z,29.23
2019-01-31T20:18:24.783Z,28.50
2019-01-31T20:20:57.466Z,27.57
2019-01-31T20:23:26.862Z,27.73
2019-01-31T20:25:56.713Z,26.23
2019-01-31T20:28:26.532Z,25.37
2019-01-31T20:30:56.222Z,24.07
2019-01-31T20:33:26.105Z,23.60
2019-01-31T20:35:57.514Z,22.13
2019-01-31T20:38:30.780Z,22.07
2019-01-31T20:41:00.327Z,23.33
2019-01-31T20:43:30.072Z,22.93
2019-01-31T20:45:59.861Z,23.03
2019-01-31T20:48:29.513Z,24.30
2019-01-31T20:50:59.391Z,24.40
2019-01-31T20:53:29.255Z,23.80
2019-01-31T20:55:58.980Z,24.27
2019-01-31T20:58:28.747Z,24.77
2019-01-31T21:00:58.386Z,24.73
2019-01-31T21:03:27.924Z,24.73
2019-01-31T21:05:57.662Z,24.77
2019-01-31T21:08:27.422Z,25.00
2019-01-31T21:10:57.091Z,25.37
2019-01-31T21:13:26.761Z,26.73
2019-01-31T21:15:56.516Z,26.80
2019-01-31T21:18:26.318Z,24.93
2019-01-31T21:20:55.907Z,25.77
2019-01-31T21:23:25.721Z,27.13
2019-01-31T21:25:55.665Z,25.67
2019-01-31T21:28:25.271Z,24.90
2019-01-31T21:30:54.999Z,26.80
2019-01-31T21:33:24.655Z,27.77
2019-01-31T21:35:54.480Z,28.13
2019-01-31T21:38:24.079Z,25.53
2019-01-31T21:40:53.915Z,26.23
2019-01-31T21:43:23.597Z,28.00
2019-01-31T21:45:53.283Z,27.17
2019-01-31T21:48:23.219Z,25.30
2019-01-31T21:50:54.236Z,26.57
2019-01-31T21:53:24.121Z,25.93
2019-01-31T21:55:56.279Z,26.40
2019-01-31T21:58:25.961Z,26.03
2019-01-31T22:00:55.865Z,22.53
2019-01-31T22:03:25.472Z,22.70
2019-01-31T22:05:55.215Z,19.67
2019-01-31T22:08:24.884Z,20.33
2019-01-31T22:10:54.615Z,19.47
2019-01-31T22:13:24.299Z,18.40
2019-01-31T22:15:54.016Z,18.93
2019-01-31T22:18:23.745Z,18.73
2019-01-31T22:20:53.431Z,19.33
2019-01-31T22:23:23.136Z,18.50
2019-01-31T22:25:52.890Z,18.63
2019-01-31T22:28:22.560Z,18.87
2019-01-31T22:30:52.293Z,18.87
2019-01-31T22:33:21.991Z,17.90
2019-01-31T22:35:51.883Z,19.43
2019-01-31T22:38:21.471Z,18.70
2019-01-31T22:40:51.118Z,18.60
2019-01-31T22:43:21.108Z,18.77
2019-01-31T22:45:50.759Z,19.73
2019-01-31T22:48:20.276Z,19.80
2019-01-31T22:50:50.023Z,20.17
2019-01-31T22:53:19.676Z,20.17
2019-01-31T22:55:49.375Z,19.97
2019-01-31T22:58:19.138Z,20.07
2019-01-31T23:01:15.031Z,18.60
2019-01-31T23:03:44.843Z,20.63
2019-01-31T23:06:15.639Z,20.13
2019-01-31T23:08:45.155Z,21.63
2019-01-31T23:11:14.868Z,23.73
2019-01-31T23:13:44.623Z,22.93
2019-01-31T23:16:14.300Z,25.27
2019-01-31T23:18:44.014Z,24.00
2019-01-31T23:21:13.837Z,24.57
2019-01-31T23:23:43.443Z,22.40
2019-01-31T23:26:13.119Z,23.07
2019-01-31T23:28:42.882Z,23.47
2019-01-31T23:31:12.560Z,23.67
2019-01-31T23:33:42.264Z,22.70
2019-01-31T23:36:12.008Z,21.80
2019-01-31T23:38:41.719Z,22.73
2019-01-31T23:41:11.427Z,21.03
2019-01-31T23:43:41.111Z,21.40
2019-01-31T23:46:10.811Z,20.53
2019-01-31T23:48:40.356Z,21.17
2019-01-31T23:51:10.026Z,20.83
2019-01-31T23:53:39.753Z,20.17
2019-01-31T23:56:09.484Z,19.23
2019-01-31T23:58:39.986Z,18.77
